Tufts University, Massachusetts
Current Conditions -  °F | °C
As of 6:54 AM on Wednesday 28 Jan 2015 (Local Time) from KBOS Reporting Station
Overcast Overcast  
Wind Chill: -1°   Ceiling: 3900
Heat Index: 14°   Visibility: 10mi
Dew Point:   Wind: 14mph
Humidity: 64%   Direction: 300°WNW
Pressure: 29.86"   Gusts: NA
Location:  42.4184°N, 71.1069°W
Report Text: KBOS 281154Z 30012KT 10SM OVC039 M10/M16 A2986 RMK AO2 SLP110 60001 70067 T11001156 11100 21106 53034 CHINO E $
Loading
Personal Weather Stations






























Interactive Weather Map New forecast layout! Learn more

10-Day Weather Forecast

Advertisements
Track Severe Weather on mobile